• Join FlightAware (Why Join?)
  • Login
  • US Flag 
11:36AM EST


 

Airport Tracker/Info


-or-


 

Live Flight TrackerFlight Track Log ✈ N498QS ✈ 01-May-2013 ✈ KSFO - KMFR

Flight Track Log - Related Links

Times and Time Zones

All times are in EDT time to prevent confusion due to time zone crossing. See the N498QS flight status page for this flight to view local times or setup timezone preferences in your user account.

Time Position Orientation Groundspeed Altitude Reporting Facility
EDT Latitude Longitude Course Direction KTS MPH feet Rate Location/Type
04:27PM 37.6425 -122.3436 North 192 221 2,000  Level Oakland Center
04:28PM 37.7044 -122.2764 41° Northeast 248 285 6,200 3,360 Climbing Oakland Center
04:29PM 37.7817 -122.2650 North 278 320 8,900 1,800 Climbing Oakland Center
04:31PM 37.8581 -122.2864 348° North 292 336 9,900 1,500 Climbing Oakland Center
04:32PM 37.9342 -122.3458 328° Northwest 323 372 12,000 2,400 Climbing Oakland Center
04:33PM 37.8874 -122.3500 North  Level FlightAware Approximate
04:33PM 38.0331 -122.3519 357° North 356 410 14,900  Level Oakland Center
04:34PM 38.1361 -122.3461 North 371 427 17,400 2,400 Climbing Oakland Center
04:35PM 38.2475 -122.3525 357° North 397 457 19,900 2,700 Climbing Oakland Center
04:36PM 38.3797 -122.3678 355° North 402 463 23,000 2,340 Climbing Oakland Center
04:37PM 38.4919 -122.3814 355° North 404 465 24,800 1,800 Climbing Oakland Center
04:38PM 38.6103 -122.3950 355° North 421 484 26,800 1,620 Climbing Oakland Center
04:39PM 38.7350 -122.4114 354° North 427 491 28,100 600 Climbing Oakland Center
04:40PM 38.8606 -122.4269 354° North 443 510 28,100  Level Oakland Center
04:41PM 38.9828 -122.4414 355° North 441 507 28,100  Level Oakland Center
04:42PM 39.1050 -122.4550 355° North 442 509 28,100  Level Oakland Center
04:43PM 39.2256 -122.4700 354° North 437 503 28,100  Level Oakland Center
04:44PM 39.3458 -122.4844 355° North 435 501 28,100  Level Oakland Center
04:45PM 39.4833 -122.5019 354° North 439 505 28,100  Level Oakland Center
04:46PM 39.6033 -122.5169 354° North 435 501 28,100  Level Oakland Center
04:47PM 39.7244 -122.5325 354° North 438 504 28,100  Level Oakland Center
04:48PM 39.8444 -122.5472 355° North 432 497 28,100  Level Oakland Center
04:49PM 39.9669 -122.5628 354° North 436 502 28,100  Level Oakland Center
04:50PM 40.0908 -122.5794 354° North 441 507 28,100  Level Oakland Center
04:51PM 40.2147 -122.5950 355° North 439 505 28,100  Level Oakland Center
04:52PM 40.3358 -122.6086 355° North 435 501 28,100  Level Oakland Center
04:53PM 40.4575 -122.6242 354° North 437 503 28,100  Level Oakland Center
04:54PM 40.5783 -122.6394 355° North 436 502 28,100  Level Oakland Center
04:55PM 40.6981 -122.6508 356° North 432 497 28,100  Level Oakland Center
04:56PM 40.8181 -122.6303 North 453 521 28,100  Level Oakland Center
04:57PM 40.9625 -122.6206 North 431 496 28,100  Level Oakland Center
04:58PM 41.0806 -122.6364 354° North 426 490 28,100  Level Oakland Center
04:59PM 41.1506 -122.6442 355° North 424 488 28,100 -1,080 Level Seattle Center
05:00PM 41.2689 -122.6569 355° North 425 489 26,400 -2,040 Descending Seattle Center
05:01PM 41.3817 -122.6697 355° North 410 472 24,000 -2,220 Descending Seattle Center
05:02PM 41.4758 -122.6811 355° North 395 455 22,000 -2,100 Descending Seattle Center
05:03PM 41.5861 -122.6928 355° North 396 456 19,800 -2,340 Descending Seattle Center
05:04PM 41.7169 -122.7097 354° North 392 451 17,300 -2,280 Descending Seattle Center
05:05PM 41.8189 -122.7217 355° North 368 423 15,200 -1,980 Descending Seattle Center
05:06PM 41.9181 -122.7317 356° North 356 410 13,300 -1,920 Descending Seattle Center
05:07PM 42.0139 -122.7428 355° North 344 396 11,400 -1,740 Descending Seattle Center
05:08PM 42.0939 -122.7517 355° North 288 331 9,800 -1,500 Descending Seattle Center
05:09PM 42.1667 -122.7628 354° North 263 303 8,400 -1,560 Descending Seattle Center
05:10PM 42.2222 -122.7969 336° Northwest 227 261 6,700 -1,860 Descending Seattle Center
05:11PM 42.2800 -122.8256 340° North 217 250 4,700 -1,980 Descending Seattle Center
05:12PM 42.3247 -122.8467 341° North 166 191 2,700 -1,620 Descending Seattle Center
05:13PM 42.3619 -122.8658 339° North 146 168 1,500 -660 Descending Seattle Center
05:14PM 42.3950 -122.8825 340° North 144 166 1,400 -120 Descending Seattle Center
05:16PM 42.3742 -122.8735 180° South  Level Estimated
05:23PM 42.3742 -122.8735 180° South  Level Estimated